sensor_id;sensor_type;location;lat;lon;timestamp;P1;durP1;ratioP1;P2;durP2;ratioP2
19985;SDS011;10154;52.474;10.768;2022-10-17T00:01:29;9.43;;;8.20;;
19985;SDS011;10154;52.474;10.768;2022-10-17T00:03:55;8.57;;;7.87;;
19985;SDS011;10154;52.474;10.768;2022-10-17T00:06:20;9.33;;;7.80;;
19985;SDS011;10154;52.474;10.768;2022-10-17T00:08:45;7.87;;;7.27;;
19985;SDS011;10154;52.474;10.768;2022-10-17T00:11:16;8.10;;;7.00;;
19985;SDS011;10154;52.474;10.768;2022-10-17T00:13:43;7.70;;;7.00;;
19985;SDS011;10154;52.474;10.768;2022-10-17T00:16:09;9.00;;;8.03;;
19985;SDS011;10154;52.474;10.768;2022-10-17T00:18:34;7.63;;;6.87;;
19985;SDS011;10154;52.474;10.768;2022-10-17T00:21:00;7.70;;;7.10;;
19985;SDS011;10154;52.474;10.768;2022-10-17T00:23:25;8.07;;;6.90;;
19985;SDS011;10154;52.474;10.768;2022-10-17T00:25:58;7.50;;;6.90;;
19985;SDS011;10154;52.474;10.768;2022-10-17T00:28:24;7.80;;;7.20;;
19985;SDS011;10154;52.474;10.768;2022-10-17T00:30:59;7.57;;;6.83;;
19985;SDS011;10154;52.474;10.768;2022-10-17T00:33:27;8.93;;;7.50;;
19985;SDS011;10154;52.474;10.768;2022-10-17T00:38:37;7.53;;;6.70;;
19985;SDS011;10154;52.474;10.768;2022-10-17T00:41:03;7.50;;;6.77;;
19985;SDS011;10154;52.474;10.768;2022-10-17T00:43:50;7.90;;;7.20;;
19985;SDS011;10154;52.474;10.768;2022-10-17T00:46:17;7.50;;;6.90;;
19985;SDS011;10154;52.474;10.768;2022-10-17T00:48:42;7.40;;;6.90;;
19985;SDS011;10154;52.474;10.768;2022-10-17T00:51:08;7.40;;;6.90;;
19985;SDS011;10154;52.474;10.768;2022-10-17T00:53:34;7.83;;;7.13;;
19985;SDS011;10154;52.474;10.768;2022-10-17T00:55:59;8.30;;;7.50;;
19985;SDS011;10154;52.474;10.768;2022-10-17T00:58:25;8.27;;;7.37;;
19985;SDS011;10154;52.474;10.768;2022-10-17T01:00:51;8.50;;;7.60;;
19985;SDS011;10154;52.474;10.768;2022-10-17T01:03:16;8.00;;;7.40;;
19985;SDS011;10154;52.474;10.768;2022-10-17T01:05:42;8.10;;;7.30;;
19985;SDS011;10154;52.474;10.768;2022-10-17T01:08:07;8.53;;;7.60;;
19985;SDS011;10154;52.474;10.768;2022-10-17T01:10:45;7.60;;;7.00;;
19985;SDS011;10154;52.474;10.768;2022-10-17T01:14:00;7.90;;;7.30;;
19985;SDS011;10154;52.474;10.768;2022-10-17T01:21:48;8.53;;;7.70;;
19985;SDS011;10154;52.474;10.768;2022-10-17T01:29:52;8.23;;;7.53;;
19985;SDS011;10154;52.474;10.768;2022-10-17T01:37:47;7.77;;;6.90;;
19985;SDS011;10154;52.474;10.768;2022-10-17T01:40:22;7.50;;;6.83;;
19985;SDS011;10154;52.474;10.768;2022-10-17T01:45:30;7.50;;;6.90;;
19985;SDS011;10154;52.474;10.768;2022-10-17T01:47:57;7.50;;;7.00;;
19985;SDS011;10154;52.474;10.768;2022-10-17T01:50:30;7.53;;;7.03;;
19985;SDS011;10154;52.474;10.768;2022-10-17T01:53:00;7.93;;;7.30;;
19985;SDS011;10154;52.474;10.768;2022-10-17T01:55:33;7.60;;;6.90;;
19985;SDS011;10154;52.474;10.768;2022-10-17T01:58:04;8.07;;;7.10;;
19985;SDS011;10154;52.474;10.768;2022-10-17T02:00:32;8.97;;;7.70;;
19985;SDS011;10154;52.474;10.768;2022-10-17T02:03:00;8.17;;;7.37;;
19985;SDS011;10154;52.474;10.768;2022-10-17T02:05:34;7.80;;;7.20;;
19985;SDS011;10154;52.474;10.768;2022-10-17T02:08:02;7.70;;;7.20;;
19985;SDS011;10154;52.474;10.768;2022-10-17T02:10:34;7.40;;;6.90;;
19985;SDS011;10154;52.474;10.768;2022-10-17T02:13:26;7.87;;;7.10;;
19985;SDS011;10154;52.474;10.768;2022-10-17T02:16:50;7.73;;;6.97;;
19985;SDS011;10154;52.474;10.768;2022-10-17T02:19:22;8.33;;;7.20;;
19985;SDS011;10154;52.474;10.768;2022-10-17T02:24:38;12.27;;;7.40;;
19985;SDS011;10154;52.474;10.768;2022-10-17T02:30:19;8.20;;;7.47;;
19985;SDS011;10154;52.474;10.768;2022-10-17T02:32:53;7.97;;;7.23;;
19985;SDS011;10154;52.474;10.768;2022-10-17T02:35:21;8.10;;;7.50;;
19985;SDS011;10154;52.474;10.768;2022-10-17T02:37:49;10.43;;;7.07;;
19985;SDS011;10154;52.474;10.768;2022-10-17T02:40:16;9.00;;;7.40;;
19985;SDS011;10154;52.474;10.768;2022-10-17T02:42:43;8.07;;;7.27;;
19985;SDS011;10154;52.474;10.768;2022-10-17T02:45:09;7.60;;;7.00;;
19985;SDS011;10154;52.474;10.768;2022-10-17T02:47:36;7.60;;;6.90;;
19985;SDS011;10154;52.474;10.768;2022-10-17T02:50:07;8.00;;;7.20;;
19985;SDS011;10154;52.474;10.768;2022-10-17T02:52:34;8.00;;;7.20;;
19985;SDS011;10154;52.474;10.768;2022-10-17T02:55:17;8.20;;;7.20;;
19985;SDS011;10154;52.474;10.768;2022-10-17T02:57:46;7.97;;;7.30;;
19985;SDS011;10154;52.474;10.768;2022-10-17T03:00:13;8.43;;;7.30;;
19985;SDS011;10154;52.474;10.768;2022-10-17T03:02:44;7.97;;;7.20;;
19985;SDS011;10154;52.474;10.768;2022-10-17T03:05:12;7.90;;;7.30;;
19985;SDS011;10154;52.474;10.768;2022-10-17T03:07:42;8.30;;;7.60;;
19985;SDS011;10154;52.474;10.768;2022-10-17T03:10:07;8.23;;;7.53;;
19985;SDS011;10154;52.474;10.768;2022-10-17T03:12:33;8.30;;;7.10;;
19985;SDS011;10154;52.474;10.768;2022-10-17T03:14:58;8.57;;;7.70;;
19985;SDS011;10154;52.474;10.768;2022-10-17T03:17:24;11.17;;;8.07;;
19985;SDS011;10154;52.474;10.768;2022-10-17T03:19:49;8.67;;;7.97;;
19985;SDS011;10154;52.474;10.768;2022-10-17T03:22:15;8.40;;;7.70;;
19985;SDS011;10154;52.474;10.768;2022-10-17T03:24:40;9.50;;;8.60;;
19985;SDS011;10154;52.474;10.768;2022-10-17T03:27:06;9.00;;;8.10;;
19985;SDS011;10154;52.474;10.768;2022-10-17T03:29:31;9.47;;;8.50;;
19985;SDS011;10154;52.474;10.768;2022-10-17T03:31:56;9.20;;;8.37;;
19985;SDS011;10154;52.474;10.768;2022-10-17T03:34:22;11.23;;;8.70;;
19985;SDS011;10154;52.474;10.768;2022-10-17T03:36:47;9.50;;;8.70;;
19985;SDS011;10154;52.474;10.768;2022-10-17T03:39:13;9.77;;;8.87;;
19985;SDS011;10154;52.474;10.768;2022-10-17T03:41:38;11.40;;;9.13;;
19985;SDS011;10154;52.474;10.768;2022-10-17T03:44:04;10.10;;;9.20;;
19985;SDS011;10154;52.474;10.768;2022-10-17T03:46:29;9.27;;;8.37;;
19985;SDS011;10154;52.474;10.768;2022-10-17T03:48:55;9.93;;;8.93;;
19985;SDS011;10154;52.474;10.768;2022-10-17T03:51:20;9.83;;;8.93;;
19985;SDS011;10154;52.474;10.768;2022-10-17T03:53:46;11.40;;;9.27;;
19985;SDS011;10154;52.474;10.768;2022-10-17T03:56:15;12.23;;;9.80;;
19985;SDS011;10154;52.474;10.768;2022-10-17T03:58:42;11.30;;;10.20;;
19985;SDS011;10154;52.474;10.768;2022-10-17T04:01:09;10.60;;;9.60;;
19985;SDS011;10154;52.474;10.768;2022-10-17T04:03:35;10.37;;;9.30;;
19985;SDS011;10154;52.474;10.768;2022-10-17T04:06:01;10.63;;;9.63;;
19985;SDS011;10154;52.474;10.768;2022-10-17T04:08:28;11.13;;;9.83;;
19985;SDS011;10154;52.474;10.768;2022-10-17T04:11:00;10.50;;;9.60;;
19985;SDS011;10154;52.474;10.768;2022-10-17T04:13:27;10.60;;;9.50;;
19985;SDS011;10154;52.474;10.768;2022-10-17T04:15:54;10.73;;;9.63;;
19985;SDS011;10154;52.474;10.768;2022-10-17T04:18:23;10.60;;;9.60;;
19985;SDS011;10154;52.474;10.768;2022-10-17T04:20:49;10.80;;;9.80;;
19985;SDS011;10154;52.474;10.768;2022-10-17T04:23:14;10.60;;;9.60;;
19985;SDS011;10154;52.474;10.768;2022-10-17T04:25:40;10.60;;;9.57;;
19985;SDS011;10154;52.474;10.768;2022-10-17T04:28:05;10.63;;;9.70;;
19985;SDS011;10154;52.474;10.768;2022-10-17T04:30:31;10.70;;;9.70;;
19985;SDS011;10154;52.474;10.768;2022-10-17T04:32:57;10.50;;;9.60;;
19985;SDS011;10154;52.474;10.768;2022-10-17T04:35:23;10.10;;;9.30;;
19985;SDS011;10154;52.474;10.768;2022-10-17T04:37:50;10.97;;;9.97;;
19985;SDS011;10154;52.474;10.768;2022-10-17T04:40:26;11.80;;;9.97;;
19985;SDS011;10154;52.474;10.768;2022-10-17T04:42:51;10.53;;;9.33;;
19985;SDS011;10154;52.474;10.768;2022-10-17T04:45:17;9.97;;;9.17;;
19985;SDS011;10154;52.474;10.768;2022-10-17T04:47:42;10.53;;;9.63;;
19985;SDS011;10154;52.474;10.768;2022-10-17T04:50:08;11.67;;;9.63;;
19985;SDS011;10154;52.474;10.768;2022-10-17T04:52:34;10.63;;;9.73;;
19985;SDS011;10154;52.474;10.768;2022-10-17T04:55:05;10.90;;;9.87;;
19985;SDS011;10154;52.474;10.768;2022-10-17T04:57:36;12.00;;;9.80;;
19985;SDS011;10154;52.474;10.768;2022-10-17T05:00:02;14.83;;;12.53;;
19985;SDS011;10154;52.474;10.768;2022-10-17T05:02:27;14.77;;;12.60;;
19985;SDS011;10154;52.474;10.768;2022-10-17T05:04:53;14.17;;;12.23;;
19985;SDS011;10154;52.474;10.768;2022-10-17T05:07:18;20.23;;;13.67;;
19985;SDS011;10154;52.474;10.768;2022-10-17T05:09:43;18.40;;;14.97;;
19985;SDS011;10154;52.474;10.768;2022-10-17T05:12:09;19.80;;;14.77;;
19985;SDS011;10154;52.474;10.768;2022-10-17T05:14:35;20.40;;;15.73;;
19985;SDS011;10154;52.474;10.768;2022-10-17T05:17:00;21.10;;;14.60;;
19985;SDS011;10154;52.474;10.768;2022-10-17T05:19:25;18.03;;;13.77;;
19985;SDS011;10154;52.474;10.768;2022-10-17T05:21:51;15.77;;;12.93;;
19985;SDS011;10154;52.474;10.768;2022-10-17T05:24:16;17.27;;;14.37;;
19985;SDS011;10154;52.474;10.768;2022-10-17T05:26:42;18.47;;;13.80;;
19985;SDS011;10154;52.474;10.768;2022-10-17T05:29:07;16.27;;;12.47;;
19985;SDS011;10154;52.474;10.768;2022-10-17T05:31:33;13.17;;;11.87;;
19985;SDS011;10154;52.474;10.768;2022-10-17T05:33:59;13.10;;;11.70;;
19985;SDS011;10154;52.474;10.768;2022-10-17T05:36:28;13.30;;;11.90;;
19985;SDS011;10154;52.474;10.768;2022-10-17T05:38:53;13.20;;;11.53;;
19985;SDS011;10154;52.474;10.768;2022-10-17T05:41:19;13.47;;;12.00;;
19985;SDS011;10154;52.474;10.768;2022-10-17T05:43:45;13.30;;;11.90;;
19985;SDS011;10154;52.474;10.768;2022-10-17T05:46:11;13.93;;;11.40;;
19985;SDS011;10154;52.474;10.768;2022-10-17T05:48:36;12.47;;;11.17;;
19985;SDS011;10154;52.474;10.768;2022-10-17T05:51:06;17.10;;;11.90;;
19985;SDS011;10154;52.474;10.768;2022-10-17T05:53:34;12.50;;;11.30;;
19985;SDS011;10154;52.474;10.768;2022-10-17T05:56:04;15.07;;;11.60;;
19985;SDS011;10154;52.474;10.768;2022-10-17T05:58:32;13.03;;;11.70;;
19985;SDS011;10154;52.474;10.768;2022-10-17T06:01:02;14.67;;;11.57;;
19985;SDS011;10154;52.474;10.768;2022-10-17T06:03:29;12.23;;;10.97;;
19985;SDS011;10154;52.474;10.768;2022-10-17T06:05:55;13.57;;;11.30;;
19985;SDS011;10154;52.474;10.768;2022-10-17T06:08:21;12.03;;;10.80;;
19985;SDS011;10154;52.474;10.768;2022-10-17T06:10:47;12.07;;;10.83;;
19985;SDS011;10154;52.474;10.768;2022-10-17T06:13:14;13.73;;;10.73;;
19985;SDS011;10154;52.474;10.768;2022-10-17T06:15:40;11.70;;;10.70;;
19985;SDS011;10154;52.474;10.768;2022-10-17T06:18:05;11.53;;;10.43;;
19985;SDS011;10154;52.474;10.768;2022-10-17T06:20:31;12.27;;;10.50;;
19985;SDS011;10154;52.474;10.768;2022-10-17T06:22:56;12.97;;;11.60;;
19985;SDS011;10154;52.474;10.768;2022-10-17T06:25:22;16.57;;;13.10;;
19985;SDS011;10154;52.474;10.768;2022-10-17T06:27:47;17.13;;;13.90;;
19985;SDS011;10154;52.474;10.768;2022-10-17T06:30:13;15.43;;;12.93;;
19985;SDS011;10154;52.474;10.768;2022-10-17T06:32:38;14.97;;;13.20;;
19985;SDS011;10154;52.474;10.768;2022-10-17T06:35:04;15.60;;;13.57;;
19985;SDS011;10154;52.474;10.768;2022-10-17T06:37:30;20.50;;;14.50;;
19985;SDS011;10154;52.474;10.768;2022-10-17T06:39:57;16.63;;;14.87;;
19985;SDS011;10154;52.474;10.768;2022-10-17T06:42:22;16.33;;;14.60;;
19985;SDS011;10154;52.474;10.768;2022-10-17T06:44:48;17.97;;;15.43;;
19985;SDS011;10154;52.474;10.768;2022-10-17T06:47:13;16.43;;;14.63;;
19985;SDS011;10154;52.474;10.768;2022-10-17T06:49:39;17.93;;;15.60;;
19985;SDS011;10154;52.474;10.768;2022-10-17T06:52:04;14.33;;;12.50;;
19985;SDS011;10154;52.474;10.768;2022-10-17T06:54:30;14.73;;;12.63;;
19985;SDS011;10154;52.474;10.768;2022-10-17T06:56:55;14.30;;;12.57;;
19985;SDS011;10154;52.474;10.768;2022-10-17T06:59:21;13.73;;;12.17;;
19985;SDS011;10154;52.474;10.768;2022-10-17T07:01:46;14.57;;;11.83;;
19985;SDS011;10154;52.474;10.768;2022-10-17T07:04:12;12.27;;;11.07;;
19985;SDS011;10154;52.474;10.768;2022-10-17T07:06:38;13.13;;;10.80;;
19985;SDS011;10154;52.474;10.768;2022-10-17T07:09:03;11.20;;;10.13;;
19985;SDS011;10154;52.474;10.768;2022-10-17T07:11:31;13.43;;;11.77;;
19985;SDS011;10154;52.474;10.768;2022-10-17T07:13:56;12.20;;;11.00;;
19985;SDS011;10154;52.474;10.768;2022-10-17T07:16:22;14.27;;;12.43;;
19985;SDS011;10154;52.474;10.768;2022-10-17T07:18:48;14.60;;;12.30;;
19985;SDS011;10154;52.474;10.768;2022-10-17T07:21:14;13.00;;;11.80;;
19985;SDS011;10154;52.474;10.768;2022-10-17T07:23:39;14.43;;;13.03;;
19985;SDS011;10154;52.474;10.768;2022-10-17T07:26:06;13.27;;;11.87;;
19985;SDS011;10154;52.474;10.768;2022-10-17T07:28:37;13.73;;;12.40;;
19985;SDS011;10154;52.474;10.768;2022-10-17T07:31:07;13.07;;;11.60;;
19985;SDS011;10154;52.474;10.768;2022-10-17T07:33:34;11.17;;;10.10;;
19985;SDS011;10154;52.474;10.768;2022-10-17T07:36:00;10.90;;;10.00;;
19985;SDS011;10154;52.474;10.768;2022-10-17T07:38:26;10.60;;;9.50;;
19985;SDS011;10154;52.474;10.768;2022-10-17T07:40:53;10.83;;;9.60;;
19985;SDS011;10154;52.474;10.768;2022-10-17T07:43:22;9.13;;;8.30;;
19985;SDS011;10154;52.474;10.768;2022-10-17T07:45:49;8.87;;;8.10;;
19985;SDS011;10154;52.474;10.768;2022-10-17T07:48:14;9.47;;;8.53;;
19985;SDS011;10154;52.474;10.768;2022-10-17T07:50:40;9.67;;;8.30;;
19985;SDS011;10154;52.474;10.768;2022-10-17T07:53:05;10.87;;;8.37;;
19985;SDS011;10154;52.474;10.768;2022-10-17T07:55:31;10.93;;;8.10;;
19985;SDS011;10154;52.474;10.768;2022-10-17T07:57:57;8.70;;;8.00;;
19985;SDS011;10154;52.474;10.768;2022-10-17T08:00:24;8.27;;;7.47;;
19985;SDS011;10154;52.474;10.768;2022-10-17T08:02:50;8.80;;;7.47;;
19985;SDS011;10154;52.474;10.768;2022-10-17T08:05:15;8.40;;;7.50;;
19985;SDS011;10154;52.474;10.768;2022-10-17T08:07:41;9.00;;;7.10;;
19985;SDS011;10154;52.474;10.768;2022-10-17T08:10:07;8.73;;;7.13;;
19985;SDS011;10154;52.474;10.768;2022-10-17T08:12:32;10.87;;;6.10;;
19985;SDS011;10154;52.474;10.768;2022-10-17T08:15:01;6.93;;;5.13;;
19985;SDS011;10154;52.474;10.768;2022-10-17T08:17:27;6.03;;;4.90;;
19985;SDS011;10154;52.474;10.768;2022-10-17T08:19:53;8.23;;;4.57;;
19985;SDS011;10154;52.474;10.768;2022-10-17T08:22:18;11.90;;;4.50;;
19985;SDS011;10154;52.474;10.768;2022-10-17T08:24:44;11.90;;;4.67;;
19985;SDS011;10154;52.474;10.768;2022-10-17T08:27:10;7.90;;;4.50;;
19985;SDS011;10154;52.474;10.768;2022-10-17T08:29:38;8.23;;;4.20;;
19985;SDS011;10154;52.474;10.768;2022-10-17T08:32:04;6.83;;;4.43;;
19985;SDS011;10154;52.474;10.768;2022-10-17T08:34:30;10.03;;;4.43;;
19985;SDS011;10154;52.474;10.768;2022-10-17T08:36:56;4.77;;;4.23;;
19985;SDS011;10154;52.474;10.768;2022-10-17T08:39:22;7.50;;;4.40;;
19985;SDS011;10154;52.474;10.768;2022-10-17T08:42:07;10.40;;;4.43;;
19985;SDS011;10154;52.474;10.768;2022-10-17T08:47:42;5.93;;;4.10;;
19985;SDS011;10154;52.474;10.768;2022-10-17T08:50:15;5.60;;;4.57;;
19985;SDS011;10154;52.474;10.768;2022-10-17T08:52:48;5.40;;;4.60;;
19985;SDS011;10154;52.474;10.768;2022-10-17T08:57:53;8.17;;;4.33;;
19985;SDS011;10154;52.474;10.768;2022-10-17T09:00:20;12.00;;;4.60;;
19985;SDS011;10154;52.474;10.768;2022-10-17T09:02:53;5.00;;;4.07;;
19985;SDS011;10154;52.474;10.768;2022-10-17T09:05:32;5.30;;;4.45;;
19985;SDS011;10154;52.474;10.768;2022-10-17T09:10:52;13.00;;;4.50;;
19985;SDS011;10154;52.474;10.768;2022-10-17T09:18:40;11.32;;;4.30;;
19985;SDS011;10154;52.474;10.768;2022-10-17T09:23:44;12.05;;;4.30;;
19985;SDS011;10154;52.474;10.768;2022-10-17T09:26:12;8.48;;;4.30;;
19985;SDS011;10154;52.474;10.768;2022-10-17T09:28:38;5.43;;;4.10;;
19985;SDS011;10154;52.474;10.768;2022-10-17T09:33:40;10.70;;;4.35;;
19985;SDS011;10154;52.474;10.768;2022-10-17T09:36:12;5.35;;;4.20;;
19985;SDS011;10154;52.474;10.768;2022-10-17T09:38:42;7.55;;;4.30;;
19985;SDS011;10154;52.474;10.768;2022-10-17T09:41:13;10.20;;;3.83;;
19985;SDS011;10154;52.474;10.768;2022-10-17T09:43:43;9.98;;;4.13;;
19985;SDS011;10154;52.474;10.768;2022-10-17T09:49:12;5.60;;;3.70;;
19985;SDS011;10154;52.474;10.768;2022-10-17T09:51:41;6.63;;;4.07;;
19985;SDS011;10154;52.474;10.768;2022-10-17T09:54:12;6.53;;;3.97;;
19985;SDS011;10154;52.474;10.768;2022-10-17T09:57:00;7.05;;;3.88;;
19985;SDS011;10154;52.474;10.768;2022-10-17T09:59:33;6.70;;;3.78;;
19985;SDS011;10154;52.474;10.768;2022-10-17T10:07:23;8.88;;;4.00;;
19985;SDS011;10154;52.474;10.768;2022-10-17T10:09:49;8.10;;;3.83;;
19985;SDS011;10154;52.474;10.768;2022-10-17T10:12:19;5.55;;;3.75;;
19985;SDS011;10154;52.474;10.768;2022-10-17T10:14:50;7.60;;;3.80;;
19985;SDS011;10154;52.474;10.768;2022-10-17T10:20:23;7.45;;;3.72;;
19985;SDS011;10154;52.474;10.768;2022-10-17T10:23:06;4.40;;;3.70;;
19985;SDS011;10154;52.474;10.768;2022-10-17T10:25:47;6.53;;;3.47;;
19985;SDS011;10154;52.474;10.768;2022-10-17T10:28:16;8.15;;;3.83;;
19985;SDS011;10154;52.474;10.768;2022-10-17T10:30:45;7.95;;;3.80;;
19985;SDS011;10154;52.474;10.768;2022-10-17T10:33:12;12.30;;;3.70;;
19985;SDS011;10154;52.474;10.768;2022-10-17T10:35:37;9.32;;;3.65;;
19985;SDS011;10154;52.474;10.768;2022-10-17T10:38:07;6.28;;;3.45;;
19985;SDS011;10154;52.474;10.768;2022-10-17T10:40:35;8.77;;;4.13;;
19985;SDS011;10154;52.474;10.768;2022-10-17T10:43:15;3.70;;;3.22;;
19985;SDS011;10154;52.474;10.768;2022-10-17T10:45:45;10.52;;;3.88;;
19985;SDS011;10154;52.474;10.768;2022-10-17T10:53:48;5.53;;;4.03;;
19985;SDS011;10154;52.474;10.768;2022-10-17T10:59:16;6.97;;;4.10;;
19985;SDS011;10154;52.474;10.768;2022-10-17T11:04:36;5.90;;;3.80;;
19985;SDS011;10154;52.474;10.768;2022-10-17T11:12:45;6.78;;;3.67;;
19985;SDS011;10154;52.474;10.768;2022-10-17T11:15:24;5.32;;;3.67;;
19985;SDS011;10154;52.474;10.768;2022-10-17T11:17:58;9.38;;;3.80;;
19985;SDS011;10154;52.474;10.768;2022-10-17T11:23:50;7.28;;;3.63;;
19985;SDS011;10154;52.474;10.768;2022-10-17T11:26:04;4.95;;;3.70;;
19985;SDS011;10154;52.474;10.768;2022-10-17T11:28:53;6.40;;;3.75;;
19985;SDS011;10154;52.474;10.768;2022-10-17T11:31:21;9.45;;;3.78;;
19985;SDS011;10154;52.474;10.768;2022-10-17T11:36:18;8.45;;;3.83;;
19985;SDS011;10154;52.474;10.768;2022-10-17T11:41:30;4.95;;;4.00;;
19985;SDS011;10154;52.474;10.768;2022-10-17T11:44:17;6.47;;;4.07;;
19985;SDS011;10154;52.474;10.768;2022-10-17T11:47:25;9.10;;;3.60;;
19985;SDS011;10154;52.474;10.768;2022-10-17T11:49:59;6.88;;;3.85;;
19985;SDS011;10154;52.474;10.768;2022-10-17T11:58:22;8.40;;;3.88;;
19985;SDS011;10154;52.474;10.768;2022-10-17T12:01:12;5.72;;;4.03;;
19985;SDS011;10154;52.474;10.768;2022-10-17T12:11:44;15.20;;;4.20;;
19985;SDS011;10154;52.474;10.768;2022-10-17T12:17:00;7.35;;;4.30;;
19985;SDS011;10154;52.474;10.768;2022-10-17T12:19:28;8.05;;;4.38;;
19985;SDS011;10154;52.474;10.768;2022-10-17T12:24:40;13.00;;;4.78;;
19985;SDS011;10154;52.474;10.768;2022-10-17T12:35:38;9.30;;;4.35;;
19985;SDS011;10154;52.474;10.768;2022-10-17T12:45:52;4.63;;;3.83;;
19985;SDS011;10154;52.474;10.768;2022-10-17T12:51:13;8.73;;;3.92;;
19985;SDS011;10154;52.474;10.768;2022-10-17T12:56:12;5.07;;;3.97;;
19985;SDS011;10154;52.474;10.768;2022-10-17T12:58:42;7.78;;;3.72;;
19985;SDS011;10154;52.474;10.768;2022-10-17T13:01:44;6.70;;;4.07;;
19985;SDS011;10154;52.474;10.768;2022-10-17T13:04:02;8.02;;;3.90;;
19985;SDS011;10154;52.474;10.768;2022-10-17T13:06:32;9.80;;;3.95;;
19985;SDS011;10154;52.474;10.768;2022-10-17T13:09:07;10.30;;;3.97;;
19985;SDS011;10154;52.474;10.768;2022-10-17T13:11:51;6.55;;;4.10;;
19985;SDS011;10154;52.474;10.768;2022-10-17T13:14:18;5.68;;;4.15;;
19985;SDS011;10154;52.474;10.768;2022-10-17T13:17:20;10.00;;;4.22;;
19985;SDS011;10154;52.474;10.768;2022-10-17T13:19:52;9.32;;;3.80;;
19985;SDS011;10154;52.474;10.768;2022-10-17T13:22:23;6.82;;;4.00;;
19985;SDS011;10154;52.474;10.768;2022-10-17T13:24:51;7.53;;;3.60;;
19985;SDS011;10154;52.474;10.768;2022-10-17T13:29:57;9.65;;;4.03;;
19985;SDS011;10154;52.474;10.768;2022-10-17T13:32:24;6.30;;;4.22;;
19985;SDS011;10154;52.474;10.768;2022-10-17T13:35:04;9.38;;;4.47;;
19985;SDS011;10154;52.474;10.768;2022-10-17T13:37:34;9.73;;;4.30;;
19985;SDS011;10154;52.474;10.768;2022-10-17T13:40:00;9.07;;;4.13;;
19985;SDS011;10154;52.474;10.768;2022-10-17T13:42:28;9.40;;;3.90;;
19985;SDS011;10154;52.474;10.768;2022-10-17T13:44:55;13.50;;;4.10;;
19985;SDS011;10154;52.474;10.768;2022-10-17T13:47:28;6.22;;;4.10;;
19985;SDS011;10154;52.474;10.768;2022-10-17T13:49:57;10.77;;;4.10;;
19985;SDS011;10154;52.474;10.768;2022-10-17T13:52:24;11.00;;;4.00;;
19985;SDS011;10154;52.474;10.768;2022-10-17T13:54:53;9.02;;;4.05;;
19985;SDS011;10154;52.474;10.768;2022-10-17T13:57:21;10.48;;;3.90;;
19985;SDS011;10154;52.474;10.768;2022-10-17T13:59:56;6.25;;;3.92;;
19985;SDS011;10154;52.474;10.768;2022-10-17T14:02:24;6.13;;;3.78;;
19985;SDS011;10154;52.474;10.768;2022-10-17T14:04:59;9.93;;;4.32;;
19985;SDS011;10154;52.474;10.768;2022-10-17T14:12:52;7.60;;;3.70;;
19985;SDS011;10154;52.474;10.768;2022-10-17T14:15:18;5.38;;;3.88;;
19985;SDS011;10154;52.474;10.768;2022-10-17T14:17:52;5.97;;;4.00;;
19985;SDS011;10154;52.474;10.768;2022-10-17T14:20:19;7.80;;;4.05;;
19985;SDS011;10154;52.474;10.768;2022-10-17T14:22:45;5.88;;;3.90;;
19985;SDS011;10154;52.474;10.768;2022-10-17T14:25:30;7.05;;;4.40;;
19985;SDS011;10154;52.474;10.768;2022-10-17T14:30:38;8.32;;;4.32;;
19985;SDS011;10154;52.474;10.768;2022-10-17T14:33:17;10.65;;;4.35;;
19985;SDS011;10154;52.474;10.768;2022-10-17T14:35:51;8.25;;;4.15;;
19985;SDS011;10154;52.474;10.768;2022-10-17T14:38:18;10.65;;;4.82;;
19985;SDS011;10154;52.474;10.768;2022-10-17T14:41:19;6.88;;;4.20;;
19985;SDS011;10154;52.474;10.768;2022-10-17T14:43:56;9.13;;;4.22;;
19985;SDS011;10154;52.474;10.768;2022-10-17T14:46:23;10.90;;;3.97;;
19985;SDS011;10154;52.474;10.768;2022-10-17T14:48:53;9.23;;;4.40;;
19985;SDS011;10154;52.474;10.768;2022-10-17T14:51:20;6.07;;;4.15;;
19985;SDS011;10154;52.474;10.768;2022-10-17T14:56:54;11.23;;;4.28;;
19985;SDS011;10154;52.474;10.768;2022-10-17T14:59:20;6.47;;;4.32;;
19985;SDS011;10154;52.474;10.768;2022-10-17T15:01:50;9.27;;;4.13;;
19985;SDS011;10154;52.474;10.768;2022-10-17T15:04:16;13.40;;;4.60;;
19985;SDS011;10154;52.474;10.768;2022-10-17T15:06:42;13.00;;;4.53;;
19985;SDS011;10154;52.474;10.768;2022-10-17T15:09:08;11.32;;;4.35;;
19985;SDS011;10154;52.474;10.768;2022-10-17T15:11:34;10.43;;;4.07;;
19985;SDS011;10154;52.474;10.768;2022-10-17T15:14:00;12.88;;;4.78;;
19985;SDS011;10154;52.474;10.768;2022-10-17T15:16:26;13.25;;;4.72;;
19985;SDS011;10154;52.474;10.768;2022-10-17T15:18:55;7.30;;;4.60;;
19985;SDS011;10154;52.474;10.768;2022-10-17T15:21:21;6.78;;;4.72;;
19985;SDS011;10154;52.474;10.768;2022-10-17T15:23:48;5.00;;;4.50;;
19985;SDS011;10154;52.474;10.768;2022-10-17T15:26:14;7.85;;;5.20;;
19985;SDS011;10154;52.474;10.768;2022-10-17T15:28:44;6.25;;;4.93;;
19985;SDS011;10154;52.474;10.768;2022-10-17T15:31:12;7.78;;;4.60;;
19985;SDS011;10154;52.474;10.768;2022-10-17T15:33:39;8.00;;;4.25;;
19985;SDS011;10154;52.474;10.768;2022-10-17T15:36:14;7.43;;;4.40;;
19985;SDS011;10154;52.474;10.768;2022-10-17T15:38:52;8.43;;;4.70;;
19985;SDS011;10154;52.474;10.768;2022-10-17T15:41:20;7.50;;;4.90;;
19985;SDS011;10154;52.474;10.768;2022-10-17T15:43:46;6.20;;;4.40;;
19985;SDS011;10154;52.474;10.768;2022-10-17T15:46:19;8.23;;;4.35;;
19985;SDS011;10154;52.474;10.768;2022-10-17T15:48:46;10.02;;;4.45;;
19985;SDS011;10154;52.474;10.768;2022-10-17T15:51:12;7.93;;;4.53;;
19985;SDS011;10154;52.474;10.768;2022-10-17T15:53:38;5.00;;;4.40;;
19985;SDS011;10154;52.474;10.768;2022-10-17T15:56:03;7.82;;;4.55;;
19985;SDS011;10154;52.474;10.768;2022-10-17T15:58:32;8.85;;;5.07;;
19985;SDS011;10154;52.474;10.768;2022-10-17T16:00:59;12.50;;;5.07;;
19985;SDS011;10154;52.474;10.768;2022-10-17T16:07:07;11.20;;;5.75;;
19985;SDS011;10154;52.474;10.768;2022-10-17T16:13:52;11.13;;;5.20;;
19985;SDS011;10154;52.474;10.768;2022-10-17T16:16:19;13.23;;;5.88;;
19985;SDS011;10154;52.474;10.768;2022-10-17T16:18:46;9.73;;;4.97;;
19985;SDS011;10154;52.474;10.768;2022-10-17T16:21:12;13.30;;;5.88;;
19985;SDS011;10154;52.474;10.768;2022-10-17T16:23:39;10.60;;;5.40;;
19985;SDS011;10154;52.474;10.768;2022-10-17T16:26:05;5.72;;;4.93;;
19985;SDS011;10154;52.474;10.768;2022-10-17T16:28:31;9.80;;;5.10;;
19985;SDS011;10154;52.474;10.768;2022-10-17T16:30:57;8.55;;;4.93;;
19985;SDS011;10154;52.474;10.768;2022-10-17T16:33:23;8.65;;;4.55;;
19985;SDS011;10154;52.474;10.768;2022-10-17T16:35:48;15.65;;;4.60;;
19985;SDS011;10154;52.474;10.768;2022-10-17T16:38:14;7.95;;;4.50;;
19985;SDS011;10154;52.474;10.768;2022-10-17T16:40:39;7.57;;;4.35;;
19985;SDS011;10154;52.474;10.768;2022-10-17T16:43:05;7.93;;;4.97;;
19985;SDS011;10154;52.474;10.768;2022-10-17T16:45:31;11.40;;;4.80;;
19985;SDS011;10154;52.474;10.768;2022-10-17T16:47:57;8.35;;;4.57;;
19985;SDS011;10154;52.474;10.768;2022-10-17T16:50:23;7.18;;;4.70;;
19985;SDS011;10154;52.474;10.768;2022-10-17T16:52:49;8.50;;;5.00;;
19985;SDS011;10154;52.474;10.768;2022-10-17T16:55:15;12.75;;;5.47;;
19985;SDS011;10154;52.474;10.768;2022-10-17T16:57:43;12.65;;;4.93;;
19985;SDS011;10154;52.474;10.768;2022-10-17T17:00:09;11.10;;;4.90;;
19985;SDS011;10154;52.474;10.768;2022-10-17T17:02:36;10.90;;;4.38;;